FMSD

Details ICAO FMSD (FTU)
Name TOLAGNARO
Region Comoros, Mayotte, Réunion and Madagascar
Timezone Indian/Antananarivo (UTC+3.0)
Plans Departing 18
Arriving 22
Stats Elevation 29 ft / 9 m (AMSL)
Location -25.039276° 46.956381°
Runways 1
Magnetic Variation 23.822° W
Sunrise 2018-05-26 03:28:09 UTC / 2018-05-26 06:28:09 Local
Sunset 2018-05-26 14:13:07 UTC / 2018-05-26 17:13:07 Local
Advertisement - Login to hide

Runways

ID Width Length Bearing (true) Bearing (mag) Surface Threshold Offset Overrun Length
08 98 ft / 30 m 4,919 ft / 1,499 m 52.01° 75.83° Asphalt 0 ft / 0 m 0 ft / 0 m
26 98 ft / 30 m 4,919 ft / 1,499 m 232.01° 255.83° Asphalt 0 ft / 0 m 0 ft / 0 m

Map

Weather


0- 5 10 15 20 25 30 35+ Temperature / ° C

Clouds and Precipitation
Forecast for 2018-05-26 06:00 UTC. Updated 5 hours ago

Ground ~20,000 ft ~40,000 ft Winds

METAR

FMSD 261000Z 08018KT 9999 FEW020 29/18 Q1015

TAF

Not found

Frequencies

Tower 118.70 MHz AFIS
Warning: Do not use this data for real-world aviation or navigation. No guarantee of current accuracy is given.